Seattle, WA (98101)

9:19 PM PST on February 26, 2015 (GMT -0800)
Herrera, Inc. | Change Station
CLOSE
Current Station
Personal Weather Station
Location: Seattle, WA
Elevation: 121 ft
Nearby Weather Stations

Elev 121 ft 47.62 °N, 122.34 °W | Updated 4 seconds ago

Overcast
Overcast
50.1 °F
Feels Like 50.1 °F
N
6.0
Wind Variable Wind from SE
Gusts 11.0 mph

Today
High -- | Low -- °F
--% Chance of Precip.
Yesterday
High -- | Low -- °F
Precip. -- in
6:55 AM 5:49 PM
Waxing Gibbous, 65% visible
Pressure 29.89 in
Visibility 5.0 miles
Clouds Mostly Cloudy 3300 ft
Overcast 4200 ft
Dew Point 47 °F
Humidity 89%
Rainfall 0.03 in
Snow Depth Not available.
UV 0 out of 12
Pollen 3.20 out of 12
Air Quality Not available.
Flu Activity Not available.
METAR KBFI 270453Z 12005KT 5SM -RA BKN033 OVC042 11/08 A2989 RMK AO2 RAB37 SLP121 P0003 T01110083

More Conditions Fewer Conditions

Pressure 29.89 in
Visibility 5.0 miles
Clouds Mostly Cloudy 3300 ft
Overcast 4200 ft
Dew Point 47 °F
Humidity 89%
Rainfall 0.03 in
Snow Depth Not available.
UV 0 out of 12
Pollen 3.20 out of 12
Air Quality Not available.
Flu Activity Not available.
METAR KBFI 270453Z 12005KT 5SM -RA BKN033 OVC042 11/08 A2989 RMK AO2 RAB37 SLP121 P0003 T01110083

More Conditions Fewer Conditions

10-Day Weather Forecast

Almanac

Astronomy

Feb. 26, 2015 Rise Set
Actual Time
Civil Twilight
Nautical Twilight
Astronomical Twilight
Moon
Length of Visible Light
Length of Day
Tomorrow will be .
, % of the Moon is Illuminated

Today's Extremes

State Highs State Lows

Community

WunderPhotos

Upload Photos

1,800,637 photos uploaded!

WunderBlogs® & News

Nearby

Air Quality

  Air Quality AQ Index Pollutant
Not available.

Snow Depth

Station Depth Elevation

Earthquake Activity

City Distance Mag. Time & Date
Minimum magnitude displayed is 2.5.

Coastal Water Temperatures

Place Temperature

Nearby Weather Stations